• Join FlightAware (Why Join?)
  • Login
  • US Flag 
01:43AM EDT


 

Airport Tracker/Info


-or-


 

Live Flight TrackerFlight Track Log ✈ FIV602 ✈ 05-Sep-2013 ✈ KFAY - 6A2

Flight Track Log - Related Links

Times and Time Zones

All times are in EDT time to prevent confusion due to time zone crossing. See the FIV602 flight status page for this flight to view local times or setup timezone preferences in your user account.

Time Position Orientation Groundspeed Altitude Reporting Facility
EDT Latitude Longitude Course Direction KTS MPH feet Rate Location/Type
08:34AM 35.1025 -79.7097 223° Southwest 122 140 9,100  Level Washington Center
08:35AM 35.0808 -79.7342 223° Southwest 122 140 9,500 480 Climbing Washington Center
08:36AM 35.0522 -79.7708 226° Southwest 122 140 10,100 480 Climbing Washington Center
08:37AM 35.0450 -79.8033 255° West 122 140 10,500 180 Climbing Washington Center
08:39AM 35.0450 -79.8567 270° West 139 160 10,500  Level Washington Center
08:40AM 35.0517 -79.9050 280° West 134 154 10,600  Climbing Washington Center
08:41AM 35.0356 -79.9475 245° Southwest 126 145 10,500  Descending Washington Center
08:42AM 35.0194 -79.9872 244° Southwest 126 145 10,600 60 Climbing Washington Center
08:44AM 34.9874 -80.0576 241° Southwest  Level FlightAware Approximate
08:51AM 34.8786 -80.3378 244° Southwest  Level FlightAware Approximate
08:52AM 34.8628 -80.3777 244° Southwest  Level FlightAware Approximate
08:53AM 34.8471 -80.4175 244° Southwest  Level FlightAware Approximate
08:54AM 34.8313 -80.4574 244° Southwest  Level FlightAware Approximate
08:55AM 34.8156 -80.4972 244° Southwest  Level FlightAware Approximate
08:56AM 34.7998 -80.5370 244° Southwest  Level FlightAware Approximate
08:57AM 34.7840 -80.5768 244° Southwest  Level FlightAware Approximate
08:58AM 34.7682 -80.6166 244° Southwest  Level FlightAware Approximate
08:59AM 34.7524 -80.6564 244° Southwest  Level FlightAware Approximate
09:00AM 34.7365 -80.6962 244° Southwest  Level FlightAware Approximate
09:01AM 34.7207 -80.7359 244° Southwest  Level FlightAware Approximate
09:02AM 34.7048 -80.7756 244° Southwest  Level FlightAware Approximate
09:03AM 34.6890 -80.8153 244° Southwest  Level FlightAware Approximate
09:04AM 34.6731 -80.8550 244° Southwest  Level FlightAware Approximate
09:05AM 34.6572 -80.8947 244° Southwest  Level FlightAware Approximate
09:06AM 34.6413 -80.9343 244° Southwest  Level FlightAware Approximate
09:07AM 34.6254 -80.9740 244° Southwest  Level FlightAware Approximate
09:08AM 34.6094 -81.0136 244° Southwest  Level FlightAware Approximate
09:09AM 34.5935 -81.0533 244° Southwest  Level FlightAware Approximate
09:10AM 34.5775 -81.0928 244° Southwest  Level FlightAware Approximate
09:11AM 34.5616 -81.1324 244° Southwest  Level FlightAware Approximate
09:12AM 34.5456 -81.1720 244° Southwest  Level FlightAware Approximate
09:13AM 34.5296 -81.2116 244° Southwest  Level FlightAware Approximate
09:14AM 34.5136 -81.2511 244° Southwest  Level FlightAware Approximate
09:15AM 34.4975 -81.2906 244° Southwest  Level FlightAware Approximate
09:16AM 34.4815 -81.3301 244° Southwest  Level FlightAware Approximate
09:17AM 34.4654 -81.3696 243° Southwest  Level FlightAware Approximate
09:18AM 34.4487 -81.4087 243° Southwest  Level FlightAware Approximate
09:19AM 34.4320 -81.4478 243° Southwest  Level FlightAware Approximate
09:20AM 34.4152 -81.4868 243° Southwest  Level FlightAware Approximate
09:21AM 34.3985 -81.5259 243° Southwest  Level FlightAware Approximate
09:22AM 34.3818 -81.5649 243° Southwest  Level FlightAware Approximate
09:23AM 34.3650 -81.6039 243° Southwest  Level FlightAware Approximate
09:24AM 34.3486 -81.6432 243° Southwest  Level FlightAware Approximate
09:25AM 34.3322 -81.6824 243° Southwest  Level FlightAware Approximate
09:26AM 34.3158 -81.7216 243° Southwest  Level FlightAware Approximate
09:27AM 34.2994 -81.7608 243° Southwest  Level FlightAware Approximate
09:28AM 34.2829 -81.7999 243° Southwest  Level FlightAware Approximate
09:29AM 34.2665 -81.8391 243° Southwest  Level FlightAware Approximate
09:30AM 34.2500 -81.8782 243° Southwest  Level FlightAware Approximate
09:31AM 34.2335 -81.9173 243° Southwest  Level FlightAware Approximate
09:32AM 34.2170 -81.9565 243° Southwest  Level FlightAware Approximate
09:33AM 34.2005 -81.9955 243° Southwest  Level FlightAware Approximate
09:34AM 34.1840 -82.0346 243° Southwest  Level FlightAware Approximate
09:35AM 34.1675 -82.0737 243° Southwest  Level FlightAware Approximate
09:36AM 34.1509 -82.1127 243° Southwest  Level FlightAware Approximate
09:37AM 34.1344 -82.1518 243° Southwest  Level FlightAware Approximate
09:38AM 34.1178 -82.1908 243° Southwest  Level FlightAware Approximate
09:39AM 34.1012 -82.2298 243° Southwest  Level FlightAware Approximate
09:40AM 34.0846 -82.2688 243° Southwest  Level FlightAware Approximate
09:41AM 34.0680 -82.3077 243° Southwest  Level FlightAware Approximate
09:42AM 34.0514 -82.3467 243° Southwest  Level FlightAware Approximate
09:43AM 34.0350 -82.3858 243° Southwest  Level FlightAware Approximate
09:44AM 34.0187 -82.4249 243° Southwest  Level FlightAware Approximate
09:45AM 34.0023 -82.4640 243° Southwest  Level FlightAware Approximate
09:46AM 33.9859 -82.5031 243° Southwest  Level FlightAware Approximate
09:47AM 33.9695 -82.5421 243° Southwest  Level FlightAware Approximate
09:48AM 33.9531 -82.5812 243° Southwest  Level FlightAware Approximate
09:49AM 33.9367 -82.6202 243° Southwest  Level FlightAware Approximate
09:50AM 33.9203 -82.6592 243° Southwest  Level FlightAware Approximate
09:51AM 33.9038 -82.6982 243° Southwest  Level FlightAware Approximate
09:52AM 33.8874 -82.7372 243° Southwest  Level FlightAware Approximate
09:53AM 33.8709 -82.7762 243° Southwest  Level FlightAware Approximate
09:54AM 33.8544 -82.8151 243° Southwest  Level FlightAware Approximate
09:55AM 33.8379 -82.8540 243° Southwest  Level FlightAware Approximate
09:56AM 33.8214 -82.8930 243° Southwest  Level FlightAware Approximate
09:57AM 33.8049 -82.9319 243° Southwest  Level FlightAware Approximate
09:58AM 33.7884 -82.9708 243° Southwest  Level FlightAware Approximate
09:59AM 33.7719 -83.0097 243° Southwest  Level FlightAware Approximate
10:00AM 33.7553 -83.0485 243° Southwest  Level FlightAware Approximate
10:01AM 33.7387 -83.0873 243° Southwest  Level FlightAware Approximate
10:02AM 33.7216 -83.1258 241° Southwest  Level FlightAware Approximate
10:03AM 33.7043 -83.1642 241° Southwest  Level FlightAware Approximate
10:04AM 33.6869 -83.2025 241° Southwest  Level FlightAware Approximate
10:05AM 33.6696 -83.2408 241° Southwest  Level FlightAware Approximate
10:06AM 33.6522 -83.2791 241° Southwest  Level FlightAware Approximate
10:07AM 33.6348 -83.3173 241° Southwest  Level FlightAware Approximate
10:08AM 33.6174 -83.3556 241° Southwest  Level FlightAware Approximate
10:09AM 33.5999 -83.3938 241° Southwest  Level FlightAware Approximate
10:10AM 33.5825 -83.4320 241° Southwest  Level FlightAware Approximate
10:11AM 33.5649 -83.4702 239° Southwest  Level FlightAware Approximate
10:12AM 33.5500 -83.5088 270° West  Level FlightAware Approximate
10:13AM 33.5347 -83.5472 239° Southwest  Level FlightAware Approximate
10:14AM 33.5160 -83.5846 239° Southwest  Level FlightAware Approximate
10:15AM 33.4974 -83.6219 239° Southwest  Level FlightAware Approximate
10:16AM 33.4787 -83.6592 239° Southwest  Level FlightAware Approximate
10:17AM 33.4615 -83.6975 247° West  Level FlightAware Approximate
10:18AM 33.4470 -83.7374 246° West  Level FlightAware Approximate
10:19AM 33.4325 -83.7773 246° West  Level FlightAware Approximate
10:20AM 33.4180 -83.8171 246° West  Level FlightAware Approximate
10:21AM 33.4035 -83.8570 246° West  Level FlightAware Approximate
10:22AM 33.3868 -83.8956 241° Southwest  Level FlightAware Approximate
10:23AM 33.3694 -83.9337 241° Southwest  Level FlightAware Approximate
10:24AM 33.3520 -83.9718 241° Southwest  Level FlightAware Approximate
10:25AM 33.3346 -84.0100 241° Southwest  Level FlightAware Approximate
10:26AM 33.3171 -84.0481 241° Southwest  Level FlightAware Approximate
10:27AM 33.2997 -84.0861 241° Southwest  Level FlightAware Approximate
10:28AM 33.2822 -84.1242 241° Southwest  Level FlightAware Approximate
10:29AM 33.2647 -84.1623 241° Southwest  Level FlightAware Approximate
10:30AM 33.2472 -84.2003 241° Southwest  Level FlightAware Approximate
10:31AM 33.2297 -84.2383 241° Southwest  Level FlightAware Approximate
10:32AM 33.2167 -84.2667 241° Southwest  Level FlightAware Approximate
10:33AM 33.2270 -84.2749 241° Southwest  Level Estimated
10:34AM 33.2270 -84.2749 241° Southwest  Level Estimated
10:35AM 33.2270 -84.2749 241° Southwest  Level Estimated
10:36AM 33.2270 -84.2749 241° Southwest  Level Estimated
10:37AM 33.2270 -84.2749 241° Southwest  Level Estimated
10:38AM 33.2270 -84.2749 241° Southwest  Level Estimated
10:39AM 33.2270 -84.2749 241° Southwest  Level Estimated
10:40AM 33.2270 -84.2749 241° Southwest  Level Estimated
10:41AM 33.2270 -84.2749 241° Southwest  Level Estimated
10:42AM 33.2270 -84.2749 241° Southwest  Level Estimated
10:43AM 33.2270 -84.2749 241° Southwest  Level Estimated
10:44AM 33.2270 -84.2749 241° Southwest  Level Estimated
10:45AM 33.2270 -84.2749 241° Southwest  Level Estimated
10:46AM 33.2270 -84.2749 241° Southwest  Level Estimated
10:47AM 33.2270 -84.2749 241° Southwest  Level Estimated
10:48AM 33.2270 -84.2749 241° Southwest  Level Estimated
10:49AM 33.2270 -84.2749 241° Southwest  Level Estimated
10:50AM 33.2270 -84.2749 241° Southwest  Level Estimated
10:51AM 33.2270 -84.2749 241° Southwest  Level Estimated
10:52AM 33.2270 -84.2749 241° Southwest  Level Estimated
10:53AM 33.2270 -84.2749 241° Southwest  Level Estimated
10:54AM 33.2270 -84.2749 241° Southwest  Level Estimated
10:55AM 33.2270 -84.2749 241° Southwest  Level Estimated
10:56AM 33.2270 -84.2749 241° Southwest  Level Estimated
10:57AM 33.2270 -84.2749 241° Southwest  Level Estimated
10:58AM 33.2270 -84.2749 241° Southwest  Level Estimated
10:59AM 33.2270 -84.2749 241° Southwest  Level Estimated
11:00AM 33.2270 -84.2749 241° Southwest  Level Estimated
11:01AM 33.2270 -84.2749 241° Southwest  Level Estimated
11:02AM 33.2270 -84.2749 241° Southwest  Level Estimated
11:03AM 33.2270 -84.2749 241° Southwest  Level Estimated
11:04AM 33.2270 -84.2749 241° Southwest  Level Estimated
11:05AM 33.2270 -84.2749 241° Southwest  Level Estimated
11:06AM 33.2270 -84.2749 241° Southwest  Level Estimated
11:07AM 33.2270 -84.2749 241° Southwest  Level Estimated
11:08AM 33.2270 -84.2749 241° Southwest  Level Estimated
11:09AM 33.2270 -84.2749 241° Southwest  Level Estimated
11:10AM 33.2270 -84.2749 241° Southwest  Level Estimated
11:11AM 33.2270 -84.2749 241° Southwest  Level Estimated
11:12AM 33.2270 -84.2749 241° Southwest  Level Estimated
11:13AM 33.2270 -84.2749 241° Southwest  Level Estimated
11:14AM 33.2270 -84.2749 241° Southwest  Level Estimated
11:15AM 33.2270 -84.2749 241° Southwest  Level Estimated
11:16AM 33.2270 -84.2749 241° Southwest  Level Estimated
11:17AM 33.2270 -84.2749 241° Southwest  Level Estimated
11:18AM 33.2270 -84.2749 241° Southwest  Level Estimated
11:19AM 33.2270 -84.2749 241° Southwest  Level Estimated
11:20AM 33.2270 -84.2749 241° Southwest  Level Estimated
11:21AM 33.2270 -84.2749 241° Southwest  Level Estimated